Mansfield, Massachusetts
Current Conditions -  °F | °C
As of 9:53 AM on Tuesday 21 Oct 2014 (Local Time) from KOWD Reporting Station
Few Clouds Few Clouds  
Wind Chill: 60°   Ceiling: Unl
Heat Index: 60°   Visibility: 10mi
Dew Point: 54°   Wind: 5mph
Humidity: 80%   Direction: NA
Pressure: 29.96"   Gusts: NA
Location:  42.03°N, 71.22°W
Report Text: KOWD 211353Z VRB04KT 10SM FEW047 16/12 A2996 RMK AO2 SLP144 T01560122
Loading
Personal Weather Stations






























Interactive Weather Map
Tropical Storm Tracking
New forecast layout! Learn more

10-Day Weather Forecast

Advertisements
Track Severe Weather on mobile